createdAt,value
2018-07-10T00:02:37.094Z,17.60
2018-07-10T00:06:18.635Z,17.50
2018-07-10T00:11:00.625Z,17.50
2018-07-10T00:13:28.940Z,17.40
2018-07-10T00:15:57.293Z,17.60
2018-07-10T00:18:25.600Z,17.60
2018-07-10T00:20:54.459Z,17.50
2018-07-10T00:23:22.821Z,17.60
2018-07-10T00:25:51.928Z,17.50
2018-07-10T00:28:20.926Z,17.40
2018-07-10T00:30:49.283Z,17.30
2018-07-10T00:33:17.607Z,17.40
2018-07-10T00:35:45.940Z,17.40
2018-07-10T00:39:26.922Z,17.30
2018-07-10T00:41:55.248Z,17.40
2018-07-10T00:44:23.624Z,17.60
2018-07-10T00:46:51.984Z,17.40
2018-07-10T00:49:20.328Z,17.30
2018-07-10T00:51:49.263Z,17.30
2018-07-10T00:54:17.577Z,17.40
2018-07-10T00:56:46.752Z,17.40
2018-07-10T00:59:15.209Z,17.30
2018-07-10T01:01:43.874Z,17.40
2018-07-10T01:04:12.172Z,17.30
2018-07-10T01:06:40.582Z,17.40
2018-07-10T01:09:13.056Z,17.30
2018-07-10T01:11:41.766Z,17.30
2018-07-10T01:14:10.157Z,17.30
2018-07-10T01:16:39.453Z,17.20
2018-07-10T01:19:14.673Z,17.10
2018-07-10T01:21:43.679Z,17.10
2018-07-10T01:24:13.976Z,17.10
2018-07-10T01:26:42.593Z,17.00
2018-07-10T01:29:21.522Z,16.90
2018-07-10T01:31:52.360Z,17.00
2018-07-10T01:34:21.008Z,17.00
2018-07-10T01:36:49.695Z,16.90
2018-07-10T01:39:18.034Z,16.90
2018-07-10T01:41:46.381Z,16.90
2018-07-10T01:44:14.832Z,16.80
2018-07-10T01:46:43.214Z,16.70
2018-07-10T01:49:11.532Z,16.70
2018-07-10T01:51:39.894Z,16.70
2018-07-10T01:54:08.271Z,16.70
2018-07-10T01:56:36.729Z,16.70
2018-07-10T01:59:05.302Z,16.60
2018-07-10T02:01:33.973Z,16.60
2018-07-10T02:04:02.947Z,16.60
2018-07-10T02:06:31.313Z,16.70
2018-07-10T02:08:59.949Z,16.70
2018-07-10T02:11:28.282Z,16.60
2018-07-10T02:13:56.660Z,16.70
2018-07-10T02:16:25.729Z,16.70
2018-07-10T02:18:54.060Z,16.50
2018-07-10T02:21:22.437Z,16.70
2018-07-10T02:23:50.778Z,16.60
2018-07-10T02:26:21.985Z,16.60
2018-07-10T02:28:51.297Z,16.60
2018-07-10T02:31:19.716Z,16.50
2018-07-10T02:33:48.105Z,16.60
2018-07-10T02:36:17.141Z,16.50
2018-07-10T02:38:47.551Z,16.60
2018-07-10T02:41:17.689Z,16.70
2018-07-10T02:43:52.148Z,16.70
2018-07-10T02:46:20.652Z,16.80
2018-07-10T02:48:49.363Z,16.60
2018-07-10T02:51:17.800Z,16.60
2018-07-10T02:53:46.409Z,16.60
2018-07-10T02:56:15.853Z,16.60
2018-07-10T02:58:44.193Z,16.40
2018-07-10T03:01:12.539Z,16.40
2018-07-10T03:03:41.934Z,16.20
2018-07-10T03:06:10.344Z,16.20
2018-07-10T03:08:38.691Z,16.10
2018-07-10T03:11:07.253Z,16.00
2018-07-10T03:13:35.974Z,16.10
2018-07-10T03:16:04.324Z,16.00
2018-07-10T03:18:33.055Z,16.10
2018-07-10T03:21:01.382Z,16.00
2018-07-10T03:23:29.755Z,16.10
2018-07-10T03:25:58.325Z,16.10
2018-07-10T03:28:26.725Z,16.00
2018-07-10T03:30:55.055Z,16.00
2018-07-10T03:33:23.473Z,16.00
2018-07-10T03:35:51.823Z,15.90
2018-07-10T03:38:20.238Z,16.00
2018-07-10T03:40:48.553Z,15.90
2018-07-10T03:43:17.201Z,16.00
2018-07-10T03:45:45.761Z,16.00
2018-07-10T03:48:14.142Z,15.90
2018-07-10T03:50:42.520Z,16.00
2018-07-10T03:53:10.991Z,16.10
2018-07-10T03:55:39.588Z,16.10
2018-07-10T03:58:08.017Z,16.10
2018-07-10T04:00:36.867Z,16.00
2018-07-10T04:03:05.385Z,16.00
2018-07-10T04:05:33.725Z,16.00
2018-07-10T04:08:04.798Z,16.00
2018-07-10T04:10:34.580Z,16.30
2018-07-10T04:13:12.200Z,16.30
2018-07-10T04:15:42.071Z,16.30
2018-07-10T04:18:12.172Z,16.30
2018-07-10T04:21:25.130Z,16.30
2018-07-10T04:24:02.044Z,16.30
2018-07-10T04:26:30.410Z,16.30
2018-07-10T04:29:40.172Z,16.30
2018-07-10T04:32:11.824Z,16.20
2018-07-10T04:34:40.309Z,16.20
2018-07-10T04:37:11.699Z,16.20
2018-07-10T04:39:41.898Z,16.20
2018-07-10T04:42:28.508Z,16.30
2018-07-10T04:45:05.351Z,16.20
2018-07-10T04:47:46.441Z,16.20
2018-07-10T04:50:20.023Z,16.20
2018-07-10T04:52:52.488Z,16.30
2018-07-10T04:55:21.010Z,16.20
2018-07-10T04:58:07.875Z,16.30
2018-07-10T05:00:38.434Z,16.40
2018-07-10T05:03:06.771Z,16.40
2018-07-10T05:05:35.150Z,16.50
2018-07-10T05:08:05.188Z,16.60
2018-07-10T05:10:34.806Z,16.50
2018-07-10T05:13:05.908Z,16.50
2018-07-10T05:15:35.724Z,16.50
2018-07-10T05:18:08.225Z,16.40
2018-07-10T05:20:36.624Z,16.40
2018-07-10T05:23:05.069Z,16.50
2018-07-10T05:25:33.420Z,16.50
2018-07-10T05:28:01.887Z,16.60
2018-07-10T05:30:30.242Z,16.50
2018-07-10T05:32:58.599Z,16.50
2018-07-10T05:35:27.040Z,16.60
2018-07-10T05:37:55.444Z,16.60
2018-07-10T05:40:26.536Z,16.40
2018-07-10T05:42:54.979Z,16.40
2018-07-10T05:45:24.608Z,16.30
2018-07-10T05:48:00.020Z,16.30
2018-07-10T05:50:30.232Z,16.40
2018-07-10T05:52:58.685Z,16.50
2018-07-10T05:55:29.298Z,16.60
2018-07-10T05:57:58.780Z,16.60
2018-07-10T06:00:27.339Z,16.70
2018-07-10T06:05:24.685Z,16.80
2018-07-10T06:07:54.922Z,16.80
2018-07-10T06:10:24.690Z,16.80
2018-07-10T06:12:55.019Z,16.80
2018-07-10T06:15:23.500Z,16.70
2018-07-10T06:17:52.174Z,16.70
2018-07-10T06:20:20.601Z,16.60
2018-07-10T06:22:49.676Z,16.70
2018-07-10T06:25:18.127Z,16.70
2018-07-10T06:27:57.888Z,16.70
2018-07-10T06:30:26.262Z,16.70
2018-07-10T06:33:02.592Z,16.70
2018-07-10T06:35:42.487Z,16.70
2018-07-10T06:38:13.484Z,16.90
2018-07-10T06:43:16.941Z,17.00
2018-07-10T06:45:45.274Z,17.00
2018-07-10T06:48:13.760Z,17.00
2018-07-10T06:50:55.008Z,17.00
2018-07-10T06:53:25.727Z,17.00
2018-07-10T06:55:56.328Z,17.10
2018-07-10T06:58:25.405Z,17.30
2018-07-10T07:03:24.507Z,17.40
2018-07-10T07:05:53.000Z,17.50
2018-07-10T07:08:22.375Z,17.60
2018-07-10T07:10:51.003Z,17.50
2018-07-10T07:13:19.474Z,17.70
2018-07-10T07:15:47.928Z,17.80
2018-07-10T07:18:16.426Z,17.70
2018-07-10T07:20:44.853Z,17.70
2018-07-10T07:23:14.113Z,17.70
2018-07-10T07:25:42.531Z,17.80
2018-07-10T07:28:10.940Z,18.00
2018-07-10T07:30:39.360Z,18.20
2018-07-10T07:35:35.950Z,18.50
2018-07-10T07:40:39.179Z,18.70
2018-07-10T07:43:07.654Z,18.70
2018-07-10T07:45:36.113Z,18.60
2018-07-10T07:48:04.585Z,18.70
2018-07-10T07:50:33.051Z,18.70
2018-07-10T07:53:01.488Z,19.00
2018-07-10T07:55:29.935Z,18.80
2018-07-10T07:57:58.427Z,18.80
2018-07-10T08:00:26.898Z,18.80
2018-07-10T08:02:55.408Z,18.80
2018-07-10T08:05:24.141Z,18.50
2018-07-10T08:07:52.780Z,18.60
2018-07-10T08:10:21.241Z,18.70
2018-07-10T08:12:49.761Z,19.00
2018-07-10T08:15:21.343Z,19.50
2018-07-10T08:17:49.721Z,20.00
2018-07-10T08:20:18.653Z,20.00
2018-07-10T08:22:47.016Z,20.10
2018-07-10T08:25:18.610Z,20.10
2018-07-10T08:27:47.026Z,20.30
2018-07-10T08:30:16.170Z,20.40
2018-07-10T08:32:44.649Z,20.40
2018-07-10T08:35:13.062Z,20.30
2018-07-10T08:37:41.399Z,20.30
2018-07-10T08:40:09.758Z,20.20
2018-07-10T08:42:38.913Z,20.10
2018-07-10T08:45:07.244Z,20.10
2018-07-10T08:47:35.733Z,20.00
2018-07-10T08:50:04.110Z,20.10
2018-07-10T08:52:33.098Z,19.80
2018-07-10T08:55:02.458Z,20.00
2018-07-10T08:57:30.888Z,20.00
2018-07-10T08:59:59.601Z,19.90
2018-07-10T09:02:27.958Z,20.00
2018-07-10T09:04:56.298Z,19.90
2018-07-10T09:07:24.774Z,20.00
2018-07-10T09:09:53.132Z,20.20
2018-07-10T09:12:21.465Z,20.30
2018-07-10T09:14:49.814Z,20.20
2018-07-10T09:17:18.146Z,20.20
2018-07-10T09:19:46.467Z,20.30
2018-07-10T09:22:14.803Z,20.50
2018-07-10T09:24:47.760Z,20.70
2018-07-10T09:27:18.169Z,20.70
2018-07-10T09:29:47.065Z,20.70
2018-07-10T09:32:18.342Z,20.90
2018-07-10T09:34:46.691Z,21.20
2018-07-10T09:37:20.311Z,21.20
2018-07-10T09:39:51.872Z,21.30
2018-07-10T09:42:20.213Z,21.70
2018-07-10T09:44:48.566Z,22.20
2018-07-10T09:47:16.956Z,22.40
2018-07-10T09:49:45.318Z,22.60
2018-07-10T09:52:13.708Z,22.70
2018-07-10T09:54:42.128Z,22.70
2018-07-10T09:57:10.485Z,22.20
2018-07-10T09:59:38.888Z,22.40
2018-07-10T10:02:12.571Z,22.50
2018-07-10T10:04:40.951Z,22.60
2018-07-10T10:07:09.307Z,22.70
2018-07-10T10:09:37.726Z,22.90
2018-07-10T10:12:06.070Z,22.60
2018-07-10T10:14:34.462Z,22.50
2018-07-10T10:17:02.962Z,22.70
2018-07-10T10:19:31.320Z,22.30
2018-07-10T10:21:59.676Z,22.10
2018-07-10T10:24:28.107Z,22.40
2018-07-10T10:26:57.888Z,22.40
2018-07-10T10:29:26.278Z,22.60
2018-07-10T10:31:54.790Z,22.60
2018-07-10T10:34:23.227Z,22.20
2018-07-10T10:36:51.562Z,22.40
2018-07-10T10:39:20.314Z,22.10
2018-07-10T10:41:48.666Z,21.80
2018-07-10T10:44:17.037Z,21.40
2018-07-10T10:46:45.390Z,21.40
2018-07-10T10:49:13.806Z,21.30
2018-07-10T10:51:42.505Z,21.30
2018-07-10T10:54:10.888Z,21.00
2018-07-10T10:56:39.294Z,21.00
2018-07-10T10:59:07.702Z,20.90
2018-07-10T11:01:36.052Z,20.90
2018-07-10T11:04:04.451Z,21.10
2018-07-10T11:06:32.849Z,21.20
2018-07-10T11:09:01.432Z,21.10
2018-07-10T11:11:31.069Z,21.30
2018-07-10T11:14:00.967Z,21.30
2018-07-10T11:16:29.345Z,21.10
2018-07-10T11:19:08.706Z,21.20
2018-07-10T11:21:44.162Z,21.30
2018-07-10T11:24:15.417Z,21.30
2018-07-10T11:26:45.470Z,21.00
2018-07-10T11:31:42.279Z,21.30
2018-07-10T11:34:10.661Z,21.60
2018-07-10T11:36:39.029Z,21.90
2018-07-10T11:39:09.355Z,22.20
2018-07-10T11:41:55.458Z,22.20
2018-07-10T11:44:23.854Z,22.50
2018-07-10T11:46:52.233Z,22.40
2018-07-10T11:49:21.368Z,22.60
2018-07-10T11:51:49.761Z,22.90
2018-07-10T11:54:18.164Z,22.70
2018-07-10T11:56:46.558Z,22.30
2018-07-10T11:59:14.903Z,22.30
2018-07-10T12:01:43.347Z,22.30
2018-07-10T12:04:11.685Z,21.90
2018-07-10T12:06:47.560Z,22.00
2018-07-10T12:09:15.919Z,22.30
2018-07-10T12:11:44.797Z,22.10
2018-07-10T12:14:13.165Z,22.20
2018-07-10T12:16:41.570Z,22.20
2018-07-10T12:19:09.898Z,22.10
2018-07-10T12:21:38.292Z,21.90
2018-07-10T12:24:07.009Z,21.90
2018-07-10T12:26:36.098Z,21.70
2018-07-10T12:29:04.551Z,21.70
2018-07-10T12:31:32.954Z,21.50
2018-07-10T12:34:01.341Z,21.40
2018-07-10T12:36:30.233Z,21.50
2018-07-10T12:38:58.587Z,21.40
2018-07-10T12:41:26.938Z,21.50
2018-07-10T12:43:55.330Z,21.80
2018-07-10T12:46:23.684Z,22.10
2018-07-10T12:48:52.064Z,22.50
2018-07-10T12:51:20.461Z,22.90
2018-07-10T12:53:49.066Z,22.90
2018-07-10T12:56:18.042Z,23.10
2018-07-10T12:58:46.336Z,23.10
2018-07-10T13:01:14.763Z,22.90
2018-07-10T13:03:43.767Z,22.70
2018-07-10T13:06:12.132Z,22.70
2018-07-10T13:08:40.460Z,22.60
2018-07-10T13:11:08.816Z,22.10
2018-07-10T13:13:37.166Z,22.10
2018-07-10T13:16:06.285Z,22.20
2018-07-10T13:18:34.702Z,22.00
2018-07-10T13:21:03.081Z,21.70
2018-07-10T13:23:31.462Z,21.60
2018-07-10T13:25:59.853Z,21.60
2018-07-10T13:28:28.233Z,21.70
2018-07-10T13:30:56.876Z,21.60
2018-07-10T13:33:25.358Z,21.50
2018-07-10T13:35:53.811Z,21.60
2018-07-10T13:38:22.880Z,21.50
2018-07-10T13:40:53.754Z,21.50
2018-07-10T13:43:22.258Z,21.60
2018-07-10T13:45:50.603Z,21.70
2018-07-10T13:48:19.414Z,21.50
2018-07-10T13:50:47.824Z,21.50
2018-07-10T13:53:16.260Z,21.40
2018-07-10T13:55:44.634Z,21.50
2018-07-10T13:58:18.215Z,21.40
2018-07-10T14:00:50.735Z,21.40
2018-07-10T14:03:19.115Z,21.30
2018-07-10T14:05:47.521Z,21.30
2018-07-10T14:08:16.013Z,21.30
2018-07-10T14:10:44.460Z,21.20
2018-07-10T14:13:12.792Z,21.10
2018-07-10T14:15:41.211Z,21.20
2018-07-10T14:18:09.634Z,21.30
2018-07-10T14:20:41.408Z,21.50
2018-07-10T14:23:09.895Z,21.70
2018-07-10T14:25:38.314Z,22.00
2018-07-10T14:28:06.720Z,21.80
2018-07-10T14:30:35.104Z,21.70
2018-07-10T14:33:03.449Z,21.70
2018-07-10T14:38:02.505Z,21.50
2018-07-10T14:40:31.499Z,21.70
2018-07-10T14:43:00.199Z,21.90
2018-07-10T14:45:28.653Z,22.00
2018-07-10T14:48:00.591Z,21.90
2018-07-10T14:50:29.307Z,21.80
2018-07-10T14:52:57.773Z,21.80
2018-07-10T14:55:26.305Z,22.00
2018-07-10T14:57:54.738Z,22.10
2018-07-10T15:00:23.063Z,22.40
2018-07-10T15:02:51.459Z,22.40
2018-07-10T15:05:19.844Z,21.90
2018-07-10T15:10:16.320Z,22.20
2018-07-10T15:12:44.734Z,22.20
2018-07-10T15:15:13.118Z,22.30
2018-07-10T15:17:46.979Z,22.50
2018-07-10T15:20:15.325Z,22.70
2018-07-10T15:22:43.658Z,22.90
2018-07-10T15:25:12.042Z,23.20
2018-07-10T15:27:40.449Z,22.50
2018-07-10T15:30:08.854Z,22.30
2018-07-10T15:32:37.145Z,22.00
2018-07-10T15:35:05.831Z,21.70
2018-07-10T15:37:34.272Z,21.70
2018-07-10T15:40:02.701Z,21.60
2018-07-10T15:42:31.249Z,21.60
2018-07-10T15:44:59.595Z,21.50
2018-07-10T15:47:27.935Z,21.40
2018-07-10T15:49:56.312Z,21.40
2018-07-10T15:52:24.849Z,21.20
2018-07-10T15:54:53.397Z,21.10
2018-07-10T15:57:21.935Z,21.10
2018-07-10T15:59:50.385Z,21.00
2018-07-10T16:02:18.752Z,21.20
2018-07-10T16:04:47.123Z,21.10
2018-07-10T16:07:15.575Z,21.10
2018-07-10T16:09:43.930Z,21.20
2018-07-10T16:12:12.302Z,21.30
2018-07-10T16:14:40.670Z,21.20
2018-07-10T16:17:16.678Z,21.30
2018-07-10T16:19:49.392Z,21.50
2018-07-10T16:22:18.889Z,21.10
2018-07-10T16:24:51.875Z,21.20
2018-07-10T16:27:27.014Z,21.30
2018-07-10T16:29:55.520Z,21.40
2018-07-10T16:32:24.348Z,21.50
2018-07-10T16:34:52.704Z,21.50
2018-07-10T16:37:21.224Z,21.40
2018-07-10T16:39:49.885Z,21.50
2018-07-10T16:42:23.619Z,21.70
2018-07-10T16:44:52.158Z,21.80
2018-07-10T16:47:27.730Z,21.70
2018-07-10T16:50:00.298Z,21.70
2018-07-10T16:53:00.509Z,21.60
2018-07-10T16:55:29.311Z,21.60
2018-07-10T16:57:57.666Z,21.60
2018-07-10T17:00:27.653Z,21.60
2018-07-10T17:02:57.032Z,21.60
2018-07-10T17:05:26.362Z,21.60
2018-07-10T17:07:54.769Z,21.30
2018-07-10T17:10:23.216Z,21.40
2018-07-10T17:12:51.578Z,21.40
2018-07-10T17:15:19.947Z,21.40
2018-07-10T17:17:48.402Z,21.30
2018-07-10T17:20:17.852Z,21.30
2018-07-10T17:22:46.266Z,21.20
2018-07-10T17:25:15.336Z,21.10
2018-07-10T17:27:47.070Z,20.90
2018-07-10T17:30:15.608Z,20.90
2018-07-10T17:32:44.173Z,20.80
2018-07-10T17:35:12.719Z,20.60
2018-07-10T17:37:44.991Z,20.50
2018-07-10T17:40:13.777Z,20.40
2018-07-10T17:42:42.435Z,20.30
2018-07-10T17:45:13.102Z,20.30
2018-07-10T17:47:41.561Z,20.20
2018-07-10T17:50:09.960Z,20.20
2018-07-10T17:52:38.294Z,20.10
2018-07-10T17:55:06.658Z,20.10
2018-07-10T17:57:35.786Z,19.90
2018-07-10T18:00:04.922Z,19.90
2018-07-10T18:02:33.569Z,19.80
2018-07-10T18:05:01.975Z,19.70
2018-07-10T18:07:30.349Z,19.80
2018-07-10T18:09:58.857Z,19.80
2018-07-10T18:12:28.569Z,19.80
2018-07-10T18:14:57.076Z,19.80
2018-07-10T18:17:25.737Z,19.70
2018-07-10T18:19:54.417Z,19.70
2018-07-10T18:22:22.917Z,19.70
2018-07-10T18:24:51.372Z,19.80
2018-07-10T18:27:19.894Z,19.70
2018-07-10T18:29:48.356Z,19.70
2018-07-10T18:32:16.749Z,19.70
2018-07-10T18:34:45.150Z,19.70
2018-07-10T18:37:13.569Z,19.70
2018-07-10T18:39:42.206Z,19.80
2018-07-10T18:42:10.707Z,19.80
2018-07-10T18:44:39.081Z,19.90
2018-07-10T18:47:07.596Z,19.90
2018-07-10T18:49:36.034Z,19.90
2018-07-10T18:52:04.649Z,19.90
2018-07-10T18:54:38.534Z,19.80
2018-07-10T18:57:15.010Z,19.80
2018-07-10T18:59:47.429Z,19.70
2018-07-10T19:02:19.853Z,19.80
2018-07-10T19:04:58.182Z,19.80
2018-07-10T19:07:26.663Z,19.70
2018-07-10T19:09:55.251Z,19.80
2018-07-10T19:12:23.994Z,19.80
2018-07-10T19:14:52.396Z,19.80
2018-07-10T19:17:29.202Z,19.60
2018-07-10T19:20:02.318Z,19.50
2018-07-10T19:22:40.123Z,19.50
2018-07-10T19:25:08.494Z,19.50
2018-07-10T19:27:36.940Z,19.60
2018-07-10T19:30:07.048Z,19.60
2018-07-10T19:32:36.078Z,19.60
2018-07-10T19:35:04.479Z,19.50
2018-07-10T19:37:34.189Z,19.50
2018-07-10T19:40:02.548Z,19.50
2018-07-10T19:42:32.714Z,19.50
2018-07-10T19:45:02.217Z,19.60
2018-07-10T19:47:31.334Z,19.50
2018-07-10T19:50:03.399Z,19.50
2018-07-10T19:52:31.983Z,19.50
2018-07-10T19:55:00.351Z,19.40
2018-07-10T19:57:39.660Z,19.30
2018-07-10T20:00:08.046Z,19.30
2018-07-10T20:02:36.414Z,19.30
2018-07-10T20:05:08.927Z,19.30
2018-07-10T20:07:46.791Z,19.20
2018-07-10T20:10:35.570Z,19.10
2018-07-10T20:13:10.426Z,18.90
2018-07-10T20:15:51.469Z,18.80
2018-07-10T20:19:41.291Z,18.80
2018-07-10T20:22:17.915Z,18.70
2018-07-10T20:24:54.337Z,18.50
2018-07-10T20:27:31.303Z,18.40
2018-07-10T20:30:12.280Z,18.40
2018-07-10T20:32:53.651Z,18.40
2018-07-10T20:35:27.914Z,18.30
2018-07-10T20:37:57.174Z,18.30
2018-07-10T20:40:34.649Z,18.30
2018-07-10T20:43:09.822Z,18.30
2018-07-10T20:45:43.137Z,18.20
2018-07-10T20:48:17.769Z,18.20
2018-07-10T20:50:55.555Z,18.10
2018-07-10T20:53:33.637Z,18.10
2018-07-10T20:56:14.379Z,18.00
2018-07-10T20:58:49.587Z,18.00
2018-07-10T21:01:17.913Z,17.90
2018-07-10T21:03:52.767Z,17.90
2018-07-10T21:06:37.333Z,17.80
2018-07-10T21:09:13.590Z,17.80
2018-07-10T21:11:58.275Z,17.70
2018-07-10T21:14:44.619Z,17.70
2018-07-10T21:17:16.213Z,17.70
2018-07-10T21:19:56.116Z,17.80
2018-07-10T21:22:37.343Z,17.80
2018-07-10T21:25:09.150Z,17.70
2018-07-10T21:27:46.635Z,17.80
2018-07-10T21:30:19.324Z,17.80
2018-07-10T21:33:01.303Z,17.70
2018-07-10T21:35:35.452Z,17.70
2018-07-10T21:38:14.847Z,17.70
2018-07-10T21:41:55.895Z,17.60
2018-07-10T21:45:30.230Z,17.60
2018-07-10T21:48:14.018Z,17.40
2018-07-10T21:50:47.139Z,17.40
2018-07-10T21:53:16.073Z,17.50
2018-07-10T21:55:44.472Z,17.70
2018-07-10T21:58:12.781Z,17.70
2018-07-10T22:00:51.273Z,17.80
2018-07-10T22:03:19.632Z,17.80
2018-07-10T22:05:48.054Z,17.80
2018-07-10T22:08:16.423Z,17.70
2018-07-10T22:10:44.844Z,17.60
2018-07-10T22:13:13.207Z,17.60
2018-07-10T22:15:41.583Z,17.40
2018-07-10T22:18:09.938Z,17.50
2018-07-10T22:20:38.384Z,17.40
2018-07-10T22:23:06.721Z,17.40
2018-07-10T22:25:35.205Z,17.40
2018-07-10T22:28:03.622Z,17.30
2018-07-10T22:33:06.073Z,17.20
2018-07-10T22:35:34.404Z,17.10
2018-07-10T22:38:02.772Z,17.10
2018-07-10T22:40:31.106Z,17.10
2018-07-10T22:42:59.483Z,17.00
2018-07-10T22:45:27.990Z,16.90
2018-07-10T22:47:56.308Z,16.90
2018-07-10T22:50:25.388Z,16.80
2018-07-10T22:52:57.895Z,16.80
2018-07-10T22:55:27.890Z,16.80
2018-07-10T22:58:06.819Z,16.70
2018-07-10T23:00:36.536Z,16.70
2018-07-10T23:03:17.744Z,16.70
2018-07-10T23:05:47.598Z,16.80
2018-07-10T23:08:17.279Z,16.70
2018-07-10T23:10:46.703Z,16.70
2018-07-10T23:13:15.696Z,16.60
2018-07-10T23:15:44.112Z,16.60
2018-07-10T23:18:12.662Z,16.60
2018-07-10T23:20:41.296Z,16.60
2018-07-10T23:23:10.309Z,16.60
2018-07-10T23:25:39.385Z,16.60
2018-07-10T23:28:07.846Z,16.50
2018-07-10T23:30:41.706Z,16.60
2018-07-10T23:33:15.042Z,16.60
2018-07-10T23:35:45.793Z,16.50
2018-07-10T23:38:25.091Z,16.50
2018-07-10T23:40:54.199Z,16.50
2018-07-10T23:43:22.695Z,16.40
2018-07-10T23:45:51.147Z,16.40
2018-07-10T23:48:19.623Z,16.40
2018-07-10T23:50:49.311Z,16.40
2018-07-10T23:53:29.942Z,16.30
2018-07-10T23:55:58.424Z,16.30
2018-07-10T23:58:26.783Z,16.30
